Abrams, Wisconsin
Current Conditions -  °F | °C
As of 6:55 AM on Saturday 22 Nov 2014 (Local Time) from KOCQ Reporting Station
Overcast Overcast  
Wind Chill: 24°   Ceiling: 1400
Heat Index: 33°   Visibility: 10mi
Dew Point: 29°   Wind: 10mph
Humidity: 85%   Direction: 230°SW
Pressure: 29.86"   Gusts: 17mph
Location:  44.78°N, 88.06°W
Report Text: KOCQ 221255Z AUTO 23009G15KT 10SM OVC014 00/M02 A2986 RMK AO1 T00031019
Loading
Personal Weather Stations






























Interactive Weather Map New forecast layout! Learn more

10-Day Weather Forecast

Advertisements
Track Severe Weather on mobile